sensor_id;sensor_type;location;lat;lon;timestamp;P1;durP1;ratioP1;P2;durP2;ratioP2
11414;SDS011;5763;42.714;23.244;2022-08-05T00:01:12;4.50;;;4.10;;
11414;SDS011;5763;42.714;23.244;2022-08-05T00:03:42;4.45;;;3.83;;
11414;SDS011;5763;42.714;23.244;2022-08-05T00:06:10;5.82;;;4.45;;
11414;SDS011;5763;42.714;23.244;2022-08-05T00:08:38;5.47;;;4.85;;
11414;SDS011;5763;42.714;23.244;2022-08-05T00:11:07;5.47;;;4.15;;
11414;SDS011;5763;42.714;23.244;2022-08-05T00:13:37;4.43;;;4.00;;
11414;SDS011;5763;42.714;23.244;2022-08-05T00:16:06;4.65;;;4.25;;
11414;SDS011;5763;42.714;23.244;2022-08-05T00:18:35;4.47;;;4.07;;
11414;SDS011;5763;42.714;23.244;2022-08-05T00:21:04;5.90;;;4.30;;
11414;SDS011;5763;42.714;23.244;2022-08-05T00:23:33;4.28;;;3.88;;
11414;SDS011;5763;42.714;23.244;2022-08-05T00:26:01;7.25;;;4.15;;
11414;SDS011;5763;42.714;23.244;2022-08-05T00:28:29;5.90;;;4.40;;
11414;SDS011;5763;42.714;23.244;2022-08-05T00:30:57;4.97;;;4.43;;
11414;SDS011;5763;42.714;23.244;2022-08-05T00:33:25;5.55;;;5.05;;
11414;SDS011;5763;42.714;23.244;2022-08-05T00:35:53;5.55;;;5.05;;
11414;SDS011;5763;42.714;23.244;2022-08-05T00:38:26;4.75;;;4.35;;
11414;SDS011;5763;42.714;23.244;2022-08-05T00:40:54;5.03;;;4.43;;
11414;SDS011;5763;42.714;23.244;2022-08-05T00:43:24;5.03;;;4.20;;
11414;SDS011;5763;42.714;23.244;2022-08-05T00:45:53;4.70;;;4.30;;
11414;SDS011;5763;42.714;23.244;2022-08-05T00:48:21;6.47;;;4.35;;
11414;SDS011;5763;42.714;23.244;2022-08-05T00:50:50;5.53;;;4.50;;
11414;SDS011;5763;42.714;23.244;2022-08-05T00:53:21;5.25;;;4.75;;
11414;SDS011;5763;42.714;23.244;2022-08-05T00:55:51;4.68;;;4.28;;
11414;SDS011;5763;42.714;23.244;2022-08-05T00:58:19;5.25;;;4.47;;
11414;SDS011;5763;42.714;23.244;2022-08-05T01:00:47;5.25;;;4.75;;
11414;SDS011;5763;42.714;23.244;2022-08-05T01:03:15;5.50;;;4.40;;
11414;SDS011;5763;42.714;23.244;2022-08-05T01:05:42;7.38;;;4.40;;
11414;SDS011;5763;42.714;23.244;2022-08-05T01:08:10;6.70;;;4.50;;
11414;SDS011;5763;42.714;23.244;2022-08-05T01:10:40;5.00;;;4.25;;
11414;SDS011;5763;42.714;23.244;2022-08-05T01:13:15;5.82;;;4.68;;
11414;SDS011;5763;42.714;23.244;2022-08-05T01:15:52;5.25;;;4.22;;
11414;SDS011;5763;42.714;23.244;2022-08-05T01:18:33;4.47;;;4.07;;
11414;SDS011;5763;42.714;23.244;2022-08-05T01:21:07;5.22;;;4.50;;
11414;SDS011;5763;42.714;23.244;2022-08-05T01:23:43;5.20;;;4.70;;
11414;SDS011;5763;42.714;23.244;2022-08-05T01:26:29;4.90;;;4.50;;
11414;SDS011;5763;42.714;23.244;2022-08-05T01:29:03;4.45;;;4.05;;
11414;SDS011;5763;42.714;23.244;2022-08-05T01:31:36;4.97;;;4.18;;
11414;SDS011;5763;42.714;23.244;2022-08-05T01:34:08;4.18;;;3.78;;
11414;SDS011;5763;42.714;23.244;2022-08-05T01:36:38;4.80;;;4.40;;
11414;SDS011;5763;42.714;23.244;2022-08-05T01:39:09;4.88;;;4.30;;
11414;SDS011;5763;42.714;23.244;2022-08-05T01:41:37;4.53;;;4.15;;
11414;SDS011;5763;42.714;23.244;2022-08-05T01:44:07;4.25;;;3.85;;
11414;SDS011;5763;42.714;23.244;2022-08-05T01:46:36;4.90;;;4.20;;
11414;SDS011;5763;42.714;23.244;2022-08-05T01:49:05;4.32;;;4.03;;
11414;SDS011;5763;42.714;23.244;2022-08-05T01:51:34;4.50;;;4.10;;
11414;SDS011;5763;42.714;23.244;2022-08-05T01:54:02;4.70;;;3.88;;
11414;SDS011;5763;42.714;23.244;2022-08-05T01:56:33;5.00;;;4.43;;
11414;SDS011;5763;42.714;23.244;2022-08-05T01:59:06;4.53;;;4.13;;
11414;SDS011;5763;42.714;23.244;2022-08-05T02:01:39;4.47;;;3.88;;
11414;SDS011;5763;42.714;23.244;2022-08-05T02:04:07;4.78;;;4.28;;
11414;SDS011;5763;42.714;23.244;2022-08-05T02:06:35;4.43;;;3.65;;
11414;SDS011;5763;42.714;23.244;2022-08-05T02:09:02;5.35;;;3.90;;
11414;SDS011;5763;42.714;23.244;2022-08-05T02:11:31;5.07;;;4.30;;
11414;SDS011;5763;42.714;23.244;2022-08-05T02:14:10;4.15;;;3.83;;
11414;SDS011;5763;42.714;23.244;2022-08-05T02:16:41;5.97;;;4.50;;
11414;SDS011;5763;42.714;23.244;2022-08-05T02:19:13;4.28;;;3.85;;
11414;SDS011;5763;42.714;23.244;2022-08-05T02:21:48;4.88;;;4.10;;
11414;SDS011;5763;42.714;23.244;2022-08-05T02:24:20;4.93;;;4.40;;
11414;SDS011;5763;42.714;23.244;2022-08-05T02:26:53;5.75;;;4.28;;
11414;SDS011;5763;42.714;23.244;2022-08-05T02:29:25;4.50;;;4.10;;
11414;SDS011;5763;42.714;23.244;2022-08-05T02:31:55;4.40;;;4.00;;
11414;SDS011;5763;42.714;23.244;2022-08-05T02:34:22;5.15;;;4.20;;
11414;SDS011;5763;42.714;23.244;2022-08-05T02:36:55;4.88;;;4.38;;
11414;SDS011;5763;42.714;23.244;2022-08-05T02:39:25;6.35;;;4.60;;
11414;SDS011;5763;42.714;23.244;2022-08-05T02:41:56;5.05;;;4.47;;
11414;SDS011;5763;42.714;23.244;2022-08-05T02:44:25;5.40;;;4.90;;
11414;SDS011;5763;42.714;23.244;2022-08-05T02:46:54;4.68;;;4.28;;
11414;SDS011;5763;42.714;23.244;2022-08-05T02:49:22;6.93;;;5.13;;
11414;SDS011;5763;42.714;23.244;2022-08-05T02:51:50;5.15;;;4.35;;
11414;SDS011;5763;42.714;23.244;2022-08-05T02:54:19;6.50;;;5.45;;
11414;SDS011;5763;42.714;23.244;2022-08-05T02:56:47;5.43;;;4.85;;
11414;SDS011;5763;42.714;23.244;2022-08-05T02:59:14;5.45;;;4.88;;
11414;SDS011;5763;42.714;23.244;2022-08-05T03:01:45;6.10;;;4.95;;
11414;SDS011;5763;42.714;23.244;2022-08-05T03:04:16;6.55;;;5.20;;
11414;SDS011;5763;42.714;23.244;2022-08-05T03:06:44;5.82;;;5.32;;
11414;SDS011;5763;42.714;23.244;2022-08-05T03:09:11;6.32;;;5.70;;
11414;SDS011;5763;42.714;23.244;2022-08-05T03:11:40;5.78;;;4.55;;
11414;SDS011;5763;42.714;23.244;2022-08-05T03:14:08;5.78;;;4.85;;
11414;SDS011;5763;42.714;23.244;2022-08-05T03:16:35;5.50;;;5.00;;
11414;SDS011;5763;42.714;23.244;2022-08-05T03:19:03;5.15;;;4.65;;
11414;SDS011;5763;42.714;23.244;2022-08-05T03:21:30;5.13;;;4.60;;
11414;SDS011;5763;42.714;23.244;2022-08-05T03:23:57;5.00;;;4.50;;
11414;SDS011;5763;42.714;23.244;2022-08-05T03:26:26;5.43;;;4.85;;
11414;SDS011;5763;42.714;23.244;2022-08-05T03:28:52;5.75;;;4.90;;
11414;SDS011;5763;42.714;23.244;2022-08-05T03:31:20;7.00;;;4.88;;
11414;SDS011;5763;42.714;23.244;2022-08-05T03:33:47;5.05;;;4.50;;
11414;SDS011;5763;42.714;23.244;2022-08-05T03:36:15;5.97;;;4.15;;
11414;SDS011;5763;42.714;23.244;2022-08-05T03:38:42;5.78;;;4.72;;
11414;SDS011;5763;42.714;23.244;2022-08-05T03:41:08;5.05;;;4.55;;
11414;SDS011;5763;42.714;23.244;2022-08-05T03:43:35;5.60;;;5.07;;
11414;SDS011;5763;42.714;23.244;2022-08-05T03:46:02;5.30;;;4.80;;
11414;SDS011;5763;42.714;23.244;2022-08-05T03:48:30;7.60;;;5.00;;
11414;SDS011;5763;42.714;23.244;2022-08-05T03:51:02;5.72;;;4.70;;
11414;SDS011;5763;42.714;23.244;2022-08-05T03:53:37;5.85;;;4.68;;
11414;SDS011;5763;42.714;23.244;2022-08-05T03:56:09;5.28;;;4.55;;
11414;SDS011;5763;42.714;23.244;2022-08-05T03:58:41;5.40;;;4.60;;
11414;SDS011;5763;42.714;23.244;2022-08-05T04:01:11;4.65;;;4.07;;
11414;SDS011;5763;42.714;23.244;2022-08-05T04:03:40;4.78;;;4.32;;
11414;SDS011;5763;42.714;23.244;2022-08-05T04:06:09;4.72;;;4.32;;
11414;SDS011;5763;42.714;23.244;2022-08-05T04:08:38;4.60;;;4.20;;
11414;SDS011;5763;42.714;23.244;2022-08-05T04:11:06;5.07;;;4.57;;
11414;SDS011;5763;42.714;23.244;2022-08-05T04:13:33;7.72;;;4.63;;
11414;SDS011;5763;42.714;23.244;2022-08-05T04:16:04;5.45;;;4.85;;
11414;SDS011;5763;42.714;23.244;2022-08-05T04:18:32;4.82;;;4.43;;
11414;SDS011;5763;42.714;23.244;2022-08-05T04:20:59;5.10;;;4.70;;
11414;SDS011;5763;42.714;23.244;2022-08-05T04:23:27;5.40;;;4.90;;
11414;SDS011;5763;42.714;23.244;2022-08-05T04:25:56;7.15;;;5.25;;
11414;SDS011;5763;42.714;23.244;2022-08-05T04:28:22;5.63;;;4.95;;
11414;SDS011;5763;42.714;23.244;2022-08-05T04:30:49;5.40;;;4.90;;
11414;SDS011;5763;42.714;23.244;2022-08-05T04:33:16;6.05;;;4.47;;
11414;SDS011;5763;42.714;23.244;2022-08-05T04:35:43;5.82;;;5.22;;
11414;SDS011;5763;42.714;23.244;2022-08-05T04:38:10;6.85;;;4.95;;
11414;SDS011;5763;42.714;23.244;2022-08-05T04:40:37;6.10;;;4.65;;
11414;SDS011;5763;42.714;23.244;2022-08-05T04:43:07;5.50;;;5.00;;
11414;SDS011;5763;42.714;23.244;2022-08-05T04:45:34;7.63;;;5.07;;
11414;SDS011;5763;42.714;23.244;2022-08-05T04:48:04;5.68;;;4.20;;
11414;SDS011;5763;42.714;23.244;2022-08-05T04:50:36;5.80;;;5.20;;
11414;SDS011;5763;42.714;23.244;2022-08-05T04:53:04;5.30;;;4.90;;
11414;SDS011;5763;42.714;23.244;2022-08-05T04:55:31;5.45;;;4.88;;
11414;SDS011;5763;42.714;23.244;2022-08-05T04:57:57;6.32;;;5.43;;
11414;SDS011;5763;42.714;23.244;2022-08-05T05:00:26;5.13;;;4.63;;
11414;SDS011;5763;42.714;23.244;2022-08-05T05:02:52;5.20;;;4.70;;
11414;SDS011;5763;42.714;23.244;2022-08-05T05:05:19;5.57;;;4.75;;
11414;SDS011;5763;42.714;23.244;2022-08-05T05:07:46;5.30;;;4.80;;
11414;SDS011;5763;42.714;23.244;2022-08-05T05:10:12;7.70;;;4.90;;
11414;SDS011;5763;42.714;23.244;2022-08-05T05:12:39;5.93;;;4.78;;
11414;SDS011;5763;42.714;23.244;2022-08-05T05:15:06;6.10;;;5.25;;
11414;SDS011;5763;42.714;23.244;2022-08-05T05:17:39;6.30;;;5.43;;
11414;SDS011;5763;42.714;23.244;2022-08-05T05:20:08;6.50;;;5.90;;
11414;SDS011;5763;42.714;23.244;2022-08-05T05:22:36;7.15;;;5.78;;
11414;SDS011;5763;42.714;23.244;2022-08-05T05:25:04;9.65;;;6.28;;
11414;SDS011;5763;42.714;23.244;2022-08-05T05:27:32;8.90;;;6.50;;
11414;SDS011;5763;42.714;23.244;2022-08-05T05:30:00;8.88;;;6.78;;
11414;SDS011;5763;42.714;23.244;2022-08-05T05:32:27;7.70;;;6.10;;
11414;SDS011;5763;42.714;23.244;2022-08-05T05:34:55;8.55;;;6.13;;
11414;SDS011;5763;42.714;23.244;2022-08-05T05:37:22;7.68;;;6.75;;
11414;SDS011;5763;42.714;23.244;2022-08-05T05:39:49;7.38;;;6.63;;
11414;SDS011;5763;42.714;23.244;2022-08-05T05:42:15;7.15;;;6.32;;
11414;SDS011;5763;42.714;23.244;2022-08-05T05:44:42;9.45;;;6.60;;
11414;SDS011;5763;42.714;23.244;2022-08-05T05:47:09;6.90;;;6.20;;
11414;SDS011;5763;42.714;23.244;2022-08-05T05:49:36;7.93;;;6.40;;
11414;SDS011;5763;42.714;23.244;2022-08-05T05:52:04;9.13;;;6.18;;
11414;SDS011;5763;42.714;23.244;2022-08-05T05:54:31;9.40;;;6.65;;
11414;SDS011;5763;42.714;23.244;2022-08-05T05:56:58;7.07;;;6.38;;
11414;SDS011;5763;42.714;23.244;2022-08-05T05:59:24;9.68;;;6.60;;
11414;SDS011;5763;42.714;23.244;2022-08-05T06:01:51;7.88;;;6.40;;
11414;SDS011;5763;42.714;23.244;2022-08-05T06:04:18;10.85;;;6.78;;
11414;SDS011;5763;42.714;23.244;2022-08-05T06:06:45;6.93;;;6.22;;
11414;SDS011;5763;42.714;23.244;2022-08-05T06:09:13;6.65;;;6.05;;
11414;SDS011;5763;42.714;23.244;2022-08-05T06:11:39;6.85;;;6.15;;
11414;SDS011;5763;42.714;23.244;2022-08-05T06:14:06;8.50;;;5.72;;
11414;SDS011;5763;42.714;23.244;2022-08-05T06:16:33;9.38;;;6.85;;
11414;SDS011;5763;42.714;23.244;2022-08-05T06:19:00;7.60;;;6.80;;
11414;SDS011;5763;42.714;23.244;2022-08-05T06:21:27;7.47;;;6.20;;
11414;SDS011;5763;42.714;23.244;2022-08-05T06:23:56;6.65;;;5.95;;
11414;SDS011;5763;42.714;23.244;2022-08-05T06:26:24;6.70;;;5.70;;
11414;SDS011;5763;42.714;23.244;2022-08-05T06:28:51;6.82;;;6.22;;
11414;SDS011;5763;42.714;23.244;2022-08-05T06:31:18;7.72;;;5.95;;
11414;SDS011;5763;42.714;23.244;2022-08-05T06:33:44;8.45;;;5.70;;
11414;SDS011;5763;42.714;23.244;2022-08-05T06:36:11;7.10;;;6.40;;
11414;SDS011;5763;42.714;23.244;2022-08-05T06:38:38;6.95;;;6.22;;
11414;SDS011;5763;42.714;23.244;2022-08-05T06:41:05;7.55;;;5.95;;
11414;SDS011;5763;42.714;23.244;2022-08-05T06:43:34;8.60;;;6.65;;
11414;SDS011;5763;42.714;23.244;2022-08-05T06:46:01;7.85;;;5.85;;
11414;SDS011;5763;42.714;23.244;2022-08-05T06:48:27;7.45;;;6.22;;
11414;SDS011;5763;42.714;23.244;2022-08-05T06:50:54;7.00;;;6.30;;
11414;SDS011;5763;42.714;23.244;2022-08-05T06:53:21;9.05;;;7.07;;
11414;SDS011;5763;42.714;23.244;2022-08-05T06:55:48;10.30;;;8.30;;
11414;SDS011;5763;42.714;23.244;2022-08-05T06:58:15;9.82;;;7.80;;
11414;SDS011;5763;42.714;23.244;2022-08-05T07:00:43;9.75;;;7.40;;
11414;SDS011;5763;42.714;23.244;2022-08-05T07:03:09;10.27;;;8.90;;
11414;SDS011;5763;42.714;23.244;2022-08-05T07:05:36;11.13;;;9.98;;
11414;SDS011;5763;42.714;23.244;2022-08-05T07:08:03;13.70;;;8.38;;
11414;SDS011;5763;42.714;23.244;2022-08-05T07:10:31;8.95;;;7.45;;
11414;SDS011;5763;42.714;23.244;2022-08-05T07:12:58;9.43;;;8.52;;
11414;SDS011;5763;42.714;23.244;2022-08-05T07:15:43;11.00;;;7.10;;
11414;SDS011;5763;42.714;23.244;2022-08-05T07:18:28;9.07;;;6.25;;
11414;SDS011;5763;42.714;23.244;2022-08-05T07:20:55;6.75;;;6.07;;
11414;SDS011;5763;42.714;23.244;2022-08-05T07:23:21;9.90;;;6.22;;
11414;SDS011;5763;42.714;23.244;2022-08-05T07:25:48;6.85;;;6.15;;
11414;SDS011;5763;42.714;23.244;2022-08-05T07:28:15;9.60;;;5.85;;
11414;SDS011;5763;42.714;23.244;2022-08-05T07:30:43;5.93;;;5.32;;
11414;SDS011;5763;42.714;23.244;2022-08-05T07:33:10;7.80;;;6.45;;
11414;SDS011;5763;42.714;23.244;2022-08-05T07:35:38;7.03;;;5.43;;
11414;SDS011;5763;42.714;23.244;2022-08-05T07:38:05;7.68;;;5.88;;
11414;SDS011;5763;42.714;23.244;2022-08-05T07:40:32;6.88;;;5.65;;
11414;SDS011;5763;42.714;23.244;2022-08-05T07:42:59;6.10;;;5.60;;
11414;SDS011;5763;42.714;23.244;2022-08-05T07:45:25;7.18;;;6.05;;
11414;SDS011;5763;42.714;23.244;2022-08-05T07:47:54;7.30;;;6.00;;
11414;SDS011;5763;42.714;23.244;2022-08-05T07:50:20;7.45;;;5.82;;
11414;SDS011;5763;42.714;23.244;2022-08-05T07:52:47;8.75;;;5.85;;
11414;SDS011;5763;42.714;23.244;2022-08-05T07:55:14;7.68;;;5.60;;
11414;SDS011;5763;42.714;23.244;2022-08-05T07:57:41;7.30;;;6.03;;
11414;SDS011;5763;42.714;23.244;2022-08-05T08:00:08;6.13;;;5.45;;
11414;SDS011;5763;42.714;23.244;2022-08-05T08:02:38;5.93;;;4.75;;
11414;SDS011;5763;42.714;23.244;2022-08-05T08:05:07;6.03;;;5.43;;
11414;SDS011;5763;42.714;23.244;2022-08-05T08:07:34;7.78;;;5.20;;
11414;SDS011;5763;42.714;23.244;2022-08-05T08:10:00;6.05;;;5.45;;
11414;SDS011;5763;42.714;23.244;2022-08-05T08:12:27;6.78;;;5.18;;
11414;SDS011;5763;42.714;23.244;2022-08-05T08:14:54;5.88;;;5.25;;
11414;SDS011;5763;42.714;23.244;2022-08-05T08:17:21;6.00;;;5.30;;
11414;SDS011;5763;42.714;23.244;2022-08-05T08:19:48;6.45;;;5.05;;
11414;SDS011;5763;42.714;23.244;2022-08-05T08:22:16;8.23;;;5.28;;
11414;SDS011;5763;42.714;23.244;2022-08-05T08:24:43;7.43;;;5.63;;
11414;SDS011;5763;42.714;23.244;2022-08-05T08:27:10;7.72;;;5.78;;
11414;SDS011;5763;42.714;23.244;2022-08-05T08:29:37;5.75;;;5.18;;
11414;SDS011;5763;42.714;23.244;2022-08-05T08:32:04;6.70;;;5.55;;
11414;SDS011;5763;42.714;23.244;2022-08-05T08:34:30;4.90;;;4.40;;
11414;SDS011;5763;42.714;23.244;2022-08-05T08:36:57;5.60;;;4.63;;
11414;SDS011;5763;42.714;23.244;2022-08-05T08:39:25;5.63;;;4.95;;
11414;SDS011;5763;42.714;23.244;2022-08-05T08:41:53;12.88;;;7.15;;
11414;SDS011;5763;42.714;23.244;2022-08-05T08:44:22;6.03;;;5.30;;
11414;SDS011;5763;42.714;23.244;2022-08-05T08:46:50;6.85;;;4.45;;
11414;SDS011;5763;42.714;23.244;2022-08-05T08:49:18;12.43;;;6.10;;
11414;SDS011;5763;42.714;23.244;2022-08-05T08:51:48;7.60;;;5.10;;
11414;SDS011;5763;42.714;23.244;2022-08-05T08:54:28;8.75;;;4.22;;
11414;SDS011;5763;42.714;23.244;2022-08-05T08:56:55;4.05;;;3.75;;
11414;SDS011;5763;42.714;23.244;2022-08-05T08:59:24;4.95;;;3.90;;
11414;SDS011;5763;42.714;23.244;2022-08-05T09:01:51;4.13;;;3.65;;
11414;SDS011;5763;42.714;23.244;2022-08-05T09:04:18;6.53;;;4.38;;
11414;SDS011;5763;42.714;23.244;2022-08-05T09:06:45;4.22;;;3.83;;
11414;SDS011;5763;42.714;23.244;2022-08-05T09:09:13;8.13;;;3.80;;
11414;SDS011;5763;42.714;23.244;2022-08-05T09:11:42;11.65;;;4.35;;
11414;SDS011;5763;42.714;23.244;2022-08-05T09:14:09;5.18;;;3.78;;
11414;SDS011;5763;42.714;23.244;2022-08-05T09:16:37;5.78;;;3.40;;
11414;SDS011;5763;42.714;23.244;2022-08-05T09:19:05;5.30;;;3.55;;
11414;SDS011;5763;42.714;23.244;2022-08-05T09:21:32;4.18;;;3.65;;
11414;SDS011;5763;42.714;23.244;2022-08-05T09:24:03;3.97;;;3.40;;
11414;SDS011;5763;42.714;23.244;2022-08-05T09:26:34;4.97;;;3.13;;
11414;SDS011;5763;42.714;23.244;2022-08-05T09:29:03;3.40;;;3.10;;
11414;SDS011;5763;42.714;23.244;2022-08-05T09:31:31;3.13;;;2.83;;
11414;SDS011;5763;42.714;23.244;2022-08-05T09:33:59;7.45;;;2.80;;
11414;SDS011;5763;42.714;23.244;2022-08-05T09:36:42;3.95;;;3.13;;
11414;SDS011;5763;42.714;23.244;2022-08-05T09:39:11;3.38;;;3.08;;
11414;SDS011;5763;42.714;23.244;2022-08-05T09:44:37;3.40;;;3.03;;
11414;SDS011;5763;42.714;23.244;2022-08-05T09:47:07;3.33;;;2.80;;
11414;SDS011;5763;42.714;23.244;2022-08-05T09:49:39;3.60;;;3.30;;
11414;SDS011;5763;42.714;23.244;2022-08-05T09:52:20;3.35;;;3.08;;
11414;SDS011;5763;42.714;23.244;2022-08-05T09:54:51;2.90;;;2.70;;
11414;SDS011;5763;42.714;23.244;2022-08-05T09:57:30;3.88;;;3.08;;
11414;SDS011;5763;42.714;23.244;2022-08-05T10:00:07;3.13;;;2.83;;
11414;SDS011;5763;42.714;23.244;2022-08-05T10:02:41;3.40;;;3.10;;
11414;SDS011;5763;42.714;23.244;2022-08-05T10:05:10;3.40;;;3.10;;
11414;SDS011;5763;42.714;23.244;2022-08-05T10:07:46;3.38;;;2.95;;
11414;SDS011;5763;42.714;23.244;2022-08-05T10:10:17;4.38;;;3.47;;
11414;SDS011;5763;42.714;23.244;2022-08-05T10:12:47;4.00;;;3.60;;
11414;SDS011;5763;42.714;23.244;2022-08-05T10:15:20;3.70;;;3.40;;
11414;SDS011;5763;42.714;23.244;2022-08-05T10:18:03;3.83;;;3.53;;
11414;SDS011;5763;42.714;23.244;2022-08-05T10:20:39;3.95;;;3.60;;
11414;SDS011;5763;42.714;23.244;2022-08-05T10:23:09;4.50;;;3.53;;
11414;SDS011;5763;42.714;23.244;2022-08-05T10:25:42;4.65;;;4.25;;
11414;SDS011;5763;42.714;23.244;2022-08-05T10:28:10;5.90;;;3.30;;
11414;SDS011;5763;42.714;23.244;2022-08-05T10:30:40;6.45;;;3.40;;
11414;SDS011;5763;42.714;23.244;2022-08-05T10:33:08;3.70;;;3.40;;
11414;SDS011;5763;42.714;23.244;2022-08-05T10:35:36;3.90;;;3.50;;
11414;SDS011;5763;42.714;23.244;2022-08-05T10:38:07;4.13;;;3.63;;
11414;SDS011;5763;42.714;23.244;2022-08-05T10:40:38;5.13;;;3.70;;
11414;SDS011;5763;42.714;23.244;2022-08-05T10:43:19;3.75;;;3.45;;
11414;SDS011;5763;42.714;23.244;2022-08-05T10:46:07;4.88;;;3.92;;
11414;SDS011;5763;42.714;23.244;2022-08-05T10:48:36;5.20;;;3.70;;
11414;SDS011;5763;42.714;23.244;2022-08-05T10:51:06;3.80;;;3.50;;
11414;SDS011;5763;42.714;23.244;2022-08-05T10:53:37;3.90;;;3.50;;
11414;SDS011;5763;42.714;23.244;2022-08-05T10:56:09;3.70;;;3.33;;
11414;SDS011;5763;42.714;23.244;2022-08-05T11:01:32;4.00;;;3.20;;
11414;SDS011;5763;42.714;23.244;2022-08-05T11:04:02;3.55;;;3.25;;
11414;SDS011;5763;42.714;23.244;2022-08-05T11:07:03;4.15;;;3.50;;
11414;SDS011;5763;42.714;23.244;2022-08-05T11:09:37;3.75;;;3.45;;
11414;SDS011;5763;42.714;23.244;2022-08-05T11:15:09;3.83;;;3.20;;
11414;SDS011;5763;42.714;23.244;2022-08-05T11:17:46;4.13;;;3.40;;
11414;SDS011;5763;42.714;23.244;2022-08-05T11:20:31;4.03;;;3.47;;
11414;SDS011;5763;42.714;23.244;2022-08-05T11:26:02;3.83;;;3.53;;
11414;SDS011;5763;42.714;23.244;2022-08-05T11:28:41;3.95;;;3.65;;
11414;SDS011;5763;42.714;23.244;2022-08-05T11:31:17;3.70;;;3.35;;
11414;SDS011;5763;42.714;23.244;2022-08-05T11:34:04;4.20;;;3.90;;
11414;SDS011;5763;42.714;23.244;2022-08-05T11:36:40;4.30;;;3.90;;
11414;SDS011;5763;42.714;23.244;2022-08-05T11:39:16;3.70;;;3.40;;
11414;SDS011;5763;42.714;23.244;2022-08-05T11:42:02;4.22;;;3.50;;
11414;SDS011;5763;42.714;23.244;2022-08-05T11:44:34;4.43;;;3.70;;
11414;SDS011;5763;42.714;23.244;2022-08-05T11:47:04;3.80;;;3.50;;
11414;SDS011;5763;42.714;23.244;2022-08-05T11:49:33;3.78;;;3.47;;
11414;SDS011;5763;42.714;23.244;2022-08-05T11:52:00;4.32;;;3.90;;
11414;SDS011;5763;42.714;23.244;2022-08-05T11:54:28;4.13;;;3.70;;
11414;SDS011;5763;42.714;23.244;2022-08-05T11:56:59;4.13;;;3.78;;
11414;SDS011;5763;42.714;23.244;2022-08-05T11:59:28;5.50;;;4.00;;
11414;SDS011;5763;42.714;23.244;2022-08-05T12:01:58;4.95;;;3.80;;
11414;SDS011;5763;42.714;23.244;2022-08-05T12:04:28;4.22;;;3.78;;
11414;SDS011;5763;42.714;23.244;2022-08-05T12:07:06;4.20;;;3.85;;
11414;SDS011;5763;42.714;23.244;2022-08-05T12:09:35;3.42;;;3.13;;
11414;SDS011;5763;42.714;23.244;2022-08-05T12:12:05;4.18;;;3.75;;
11414;SDS011;5763;42.714;23.244;2022-08-05T12:14:35;5.47;;;4.00;;
11414;SDS011;5763;42.714;23.244;2022-08-05T12:17:10;4.50;;;4.10;;
11414;SDS011;5763;42.714;23.244;2022-08-05T12:19:42;3.75;;;3.45;;
11414;SDS011;5763;42.714;23.244;2022-08-05T12:22:16;4.25;;;3.85;;
11414;SDS011;5763;42.714;23.244;2022-08-05T12:24:46;3.67;;;3.38;;
11414;SDS011;5763;42.714;23.244;2022-08-05T12:27:19;5.63;;;4.38;;
11414;SDS011;5763;42.714;23.244;2022-08-05T12:29:56;4.22;;;3.47;;
11414;SDS011;5763;42.714;23.244;2022-08-05T12:32:24;4.63;;;3.85;;
11414;SDS011;5763;42.714;23.244;2022-08-05T12:34:51;5.03;;;4.35;;
11414;SDS011;5763;42.714;23.244;2022-08-05T12:37:19;5.15;;;3.72;;
11414;SDS011;5763;42.714;23.244;2022-08-05T12:39:46;4.32;;;4.03;;
11414;SDS011;5763;42.714;23.244;2022-08-05T12:42:15;3.72;;;3.35;;
11414;SDS011;5763;42.714;23.244;2022-08-05T12:44:42;3.95;;;3.65;;
11414;SDS011;5763;42.714;23.244;2022-08-05T12:47:10;4.28;;;3.85;;
11414;SDS011;5763;42.714;23.244;2022-08-05T12:49:38;3.85;;;3.55;;
11414;SDS011;5763;42.714;23.244;2022-08-05T12:52:10;4.70;;;4.20;;
11414;SDS011;5763;42.714;23.244;2022-08-05T12:54:40;3.92;;;3.63;;
11414;SDS011;5763;42.714;23.244;2022-08-05T12:57:10;4.07;;;3.70;;
11414;SDS011;5763;42.714;23.244;2022-08-05T12:59:44;5.13;;;3.55;;
11414;SDS011;5763;42.714;23.244;2022-08-05T13:02:14;5.88;;;3.97;;
11414;SDS011;5763;42.714;23.244;2022-08-05T13:04:42;3.45;;;3.15;;
11414;SDS011;5763;42.714;23.244;2022-08-05T13:07:11;4.38;;;3.95;;
11414;SDS011;5763;42.714;23.244;2022-08-05T13:09:41;4.13;;;3.65;;
11414;SDS011;5763;42.714;23.244;2022-08-05T13:12:14;3.88;;;3.50;;
11414;SDS011;5763;42.714;23.244;2022-08-05T13:14:43;4.13;;;3.72;;
11414;SDS011;5763;42.714;23.244;2022-08-05T13:17:15;4.38;;;3.85;;
11414;SDS011;5763;42.714;23.244;2022-08-05T13:19:56;4.05;;;3.65;;
11414;SDS011;5763;42.714;23.244;2022-08-05T13:22:24;4.28;;;3.97;;
11414;SDS011;5763;42.714;23.244;2022-08-05T13:24:52;3.67;;;3.38;;
11414;SDS011;5763;42.714;23.244;2022-08-05T13:27:30;4.65;;;3.80;;
11414;SDS011;5763;42.714;23.244;2022-08-05T13:29:58;3.42;;;3.13;;
11414;SDS011;5763;42.714;23.244;2022-08-05T13:32:25;3.63;;;3.33;;
11414;SDS011;5763;42.714;23.244;2022-08-05T13:34:52;4.35;;;3.40;;
11414;SDS011;5763;42.714;23.244;2022-08-05T13:37:20;3.95;;;3.55;;
11414;SDS011;5763;42.714;23.244;2022-08-05T13:39:47;4.90;;;3.67;;
11414;SDS011;5763;42.714;23.244;2022-08-05T13:42:16;4.60;;;3.60;;
11414;SDS011;5763;42.714;23.244;2022-08-05T13:44:43;4.20;;;3.80;;
11414;SDS011;5763;42.714;23.244;2022-08-05T13:47:09;4.55;;;3.70;;
11414;SDS011;5763;42.714;23.244;2022-08-05T13:49:36;4.03;;;3.60;;
11414;SDS011;5763;42.714;23.244;2022-08-05T13:52:10;3.70;;;3.40;;
11414;SDS011;5763;42.714;23.244;2022-08-05T13:54:38;4.80;;;3.35;;
11414;SDS011;5763;42.714;23.244;2022-08-05T13:57:05;4.43;;;3.53;;
11414;SDS011;5763;42.714;23.244;2022-08-05T13:59:33;3.60;;;3.30;;
11414;SDS011;5763;42.714;23.244;2022-08-05T14:02:01;3.95;;;3.28;;
11414;SDS011;5763;42.714;23.244;2022-08-05T14:04:30;4.20;;;3.80;;
11414;SDS011;5763;42.714;23.244;2022-08-05T14:07:15;4.53;;;3.78;;
11414;SDS011;5763;42.714;23.244;2022-08-05T14:09:42;4.28;;;3.88;;
11414;SDS011;5763;42.714;23.244;2022-08-05T14:12:09;3.92;;;3.58;;
11414;SDS011;5763;42.714;23.244;2022-08-05T14:14:37;5.97;;;5.47;;
11414;SDS011;5763;42.714;23.244;2022-08-05T14:17:04;4.32;;;3.88;;
11414;SDS011;5763;42.714;23.244;2022-08-05T14:19:31;4.43;;;3.83;;
11414;SDS011;5763;42.714;23.244;2022-08-05T14:21:58;3.45;;;3.20;;
11414;SDS011;5763;42.714;23.244;2022-08-05T14:24:24;3.63;;;3.33;;
11414;SDS011;5763;42.714;23.244;2022-08-05T14:26:51;3.78;;;3.47;;
11414;SDS011;5763;42.714;23.244;2022-08-05T14:29:18;4.82;;;3.30;;
11414;SDS011;5763;42.714;23.244;2022-08-05T14:31:46;4.00;;;3.70;;
11414;SDS011;5763;42.714;23.244;2022-08-05T14:34:13;3.78;;;3.40;;
11414;SDS011;5763;42.714;23.244;2022-08-05T14:36:40;3.72;;;3.42;;
11414;SDS011;5763;42.714;23.244;2022-08-05T14:39:07;3.83;;;3.50;;
11414;SDS011;5763;42.714;23.244;2022-08-05T14:41:35;6.05;;;3.78;;
11414;SDS011;5763;42.714;23.244;2022-08-05T14:44:02;3.75;;;3.45;;
11414;SDS011;5763;42.714;23.244;2022-08-05T14:46:30;3.83;;;3.45;;
11414;SDS011;5763;42.714;23.244;2022-08-05T14:48:59;4.18;;;3.83;;
11414;SDS011;5763;42.714;23.244;2022-08-05T14:51:27;5.57;;;4.05;;
11414;SDS011;5763;42.714;23.244;2022-08-05T14:53:54;4.63;;;4.22;;
11414;SDS011;5763;42.714;23.244;2022-08-05T14:56:21;5.78;;;4.65;;
11414;SDS011;5763;42.714;23.244;2022-08-05T14:58:48;6.80;;;6.20;;
11414;SDS011;5763;42.714;23.244;2022-08-05T15:01:15;6.55;;;4.75;;
11414;SDS011;5763;42.714;23.244;2022-08-05T15:03:42;4.90;;;4.35;;
11414;SDS011;5763;42.714;23.244;2022-08-05T15:06:11;4.13;;;3.83;;
11414;SDS011;5763;42.714;23.244;2022-08-05T15:08:38;5.30;;;3.95;;
11414;SDS011;5763;42.714;23.244;2022-08-05T15:11:05;4.88;;;3.90;;
11414;SDS011;5763;42.714;23.244;2022-08-05T15:13:33;6.50;;;4.25;;